Time;durP1;ratioP1;P1;durP2;ratioP2;P2;SDS_P1;SDS_P2;PMS_P1;PMS_P2;Temp;Humidity;BMP_temperature;BMP_pressure;BME280_temperature;BME280_humidity;BME280_pressure;Samples;Min_cycle;Max_cycle;Signal;HPM_P1;HPM_P2
2023/07/28 00:01:02;;;;;;;8.43;1.70;;;21.00;88.70;;;;;;5068924;28;20047;-52
2023/07/28 00:04:09;;;;;;;5.40;1.77;;;21.00;89.20;;;;;;5068828;28;20048;-54
2023/07/28 00:07:14;;;;;;;9.98;2.13;;;20.90;89.60;;;;;;5070202;28;20048;-51
2023/07/28 00:10:18;;;;;;;4.88;2.05;;;20.70;90.00;;;;;;5072384;28;20522;-51
2023/07/28 00:13:22;;;;;;;5.60;1.77;;;20.70;90.00;;;;;;5072249;28;20036;-51
2023/07/28 00:16:26;;;;;;;6.18;2.35;;;20.60;90.10;;;;;;5072265;28;20043;-50
2023/07/28 00:19:31;;;;;;;7.13;2.10;;;20.50;90.50;;;;;;5060314;28;20114;-53
2023/07/28 00:22:35;;;;;;;4.93;1.85;;;20.50;90.50;;;;;;5072176;28;20407;-55
2023/07/28 00:25:41;;;;;;;6.30;2.08;;;20.40;90.80;;;;;;5072338;28;20064;-50
2023/07/28 00:28:45;;;;;;;6.18;2.20;;;20.40;90.60;;;;;;5072540;28;20047;-50
2023/07/28 00:31:49;;;;;;;5.35;1.90;;;20.30;90.80;;;;;;5071503;28;20518;-52
2023/07/28 00:34:54;;;;;;;9.52;2.65;;;20.30;90.90;;;;;;5072448;28;20056;-50
2023/07/28 00:37:58;;;;;;;5.80;2.22;;;20.30;91.00;;;;;;5072241;28;20043;-52
2023/07/28 00:41:03;;;;;;;6.13;1.77;;;20.30;91.30;;;;;;5059655;28;20052;-50
2023/07/28 00:44:07;;;;;;;5.65;2.10;;;20.30;91.60;;;;;;5072278;28;20051;-52
2023/07/28 00:47:12;;;;;;;9.13;3.03;;;19.90;91.90;;;;;;5059739;28;20051;-51
2023/07/28 00:50:16;;;;;;;6.35;2.22;;;19.70;92.40;;;;;;5072001;28;20510;-50
2023/07/28 00:53:24;;;;;;;6.47;2.00;;;19.60;93.20;;;;;;5059260;28;20048;-55
2023/07/28 00:56:28;;;;;;;6.05;2.55;;;19.40;94.70;;;;;;5071933;28;20040;-52
2023/07/28 00:59:33;;;;;;;6.85;1.80;;;19.20;97.00;;;;;;5072062;28;20052;-50
2023/07/28 01:02:37;;;;;;;9.00;2.50;;;19.00;98.80;;;;;;5071235;28;20406;-50
2023/07/28 01:05:58;;;;;;;8.30;2.10;;;18.90;99.40;;;;;;5071774;28;20050;-50
2023/07/28 01:09:13;;;;;;;7.32;2.55;;;18.90;99.90;;;;;;5072251;28;20563;-56
2023/07/28 01:12:18;;;;;;;5.22;2.08;;;18.80;99.90;;;;;;5071116;28;20051;-52
2023/07/28 01:15:22;;;;;;;5.10;1.92;;;18.80;99.90;;;;;;5059608;28;20035;-50
2023/07/28 01:18:27;;;;;;;4.65;2.22;;;18.70;99.90;;;;;;5071222;28;20048;-51
2023/07/28 01:21:32;;;;;;;5.28;2.17;;;18.60;99.90;;;;;;5071345;28;20051;-51
2023/07/28 01:24:50;;;;;;;10.75;2.42;;;18.60;99.90;;;;;;5065521;28;20044;-55
2023/07/28 01:27:56;;;;;;;8.23;2.65;;;18.60;99.90;;;;;;5071340;28;20337;-50
2023/07/28 01:31:02;;;;;;;9.43;2.70;;;18.60;99.90;;;;;;5071295;28;20051;-50
2023/07/28 01:34:06;;;;;;;7.07;2.30;;;18.60;99.90;;;;;;5070055;28;20051;-52
2023/07/28 01:37:10;;;;;;;4.50;2.40;;;18.60;99.90;;;;;;5070782;28;20036;-53
2023/07/28 01:40:14;;;;;;;7.25;2.47;;;18.60;99.90;;;;;;5069854;28;20052;-54
2023/07/28 01:43:19;;;;;;;8.55;2.47;;;18.60;99.90;;;;;;5070296;28;20032;-52
2023/07/28 01:46:22;;;;;;;9.00;2.13;;;18.50;99.90;;;;;;5073642;28;20051;-51
2023/07/28 01:49:26;;;;;;;5.68;2.05;;;18.60;99.90;;;;;;5063264;28;20048;-50
2023/07/28 01:52:30;;;;;;;4.15;2.30;;;18.50;99.90;;;;;;5057965;28;20044;-52
2023/07/28 01:55:35;;;;;;;6.13;2.25;;;18.60;99.90;;;;;;5070569;28;20043;-51
2023/07/28 01:58:39;;;;;;;9.45;2.67;;;18.60;99.90;;;;;;5038484;28;20051;-51
2023/07/28 02:01:43;;;;;;;3.63;2.25;;;18.60;99.90;;;;;;5037783;28;20052;-50
2023/07/28 02:04:48;;;;;;;6.95;2.50;;;18.60;99.90;;;;;;5050547;28;20048;-51
2023/07/28 02:07:52;;;;;;;5.05;2.30;;;18.60;99.90;;;;;;5038291;28;20052;-54
2023/07/28 02:10:58;;;;;;;5.50;2.53;;;18.50;99.90;;;;;;5058406;28;20047;-55
2023/07/28 02:14:02;;;;;;;3.95;2.08;;;18.40;99.90;;;;;;5066622;28;20521;-52
2023/07/28 02:17:06;;;;;;;7.45;2.65;;;18.50;99.90;;;;;;5070391;28;20043;-51
2023/07/28 02:20:12;;;;;;;7.10;2.33;;;18.50;99.90;;;;;;5069182;28;20415;-51
2023/07/28 02:23:17;;;;;;;5.68;2.45;;;18.50;99.90;;;;;;5069752;28;20494;-55
2023/07/28 02:26:21;;;;;;;7.38;2.58;;;18.40;99.90;;;;;;5070190;28;20048;-52
2023/07/28 02:29:25;;;;;;;5.40;2.28;;;18.40;99.90;;;;;;5070423;28;20044;-50
2023/07/28 02:32:29;;;;;;;6.47;2.05;;;18.30;99.90;;;;;;5068489;28;20051;-51
2023/07/28 02:35:34;;;;;;;8.93;2.38;;;18.30;99.90;;;;;;5070178;28;20046;-50
2023/07/28 02:38:40;;;;;;;5.28;2.17;;;18.30;99.90;;;;;;5070441;28;20036;-55
2023/07/28 02:41:45;;;;;;;9.43;2.75;;;18.30;99.90;;;;;;5068831;28;20432;-51
2023/07/28 02:44:49;;;;;;;7.68;2.10;;;18.30;99.90;;;;;;5069940;28;20505;-50
2023/07/28 02:47:54;;;;;;;6.55;1.95;;;18.30;99.90;;;;;;5069916;28;20043;-50
2023/07/28 02:51:00;;;;;;;4.65;1.88;;;18.30;99.90;;;;;;5068661;28;20044;-51
2023/07/28 02:54:06;;;;;;;7.28;1.98;;;18.30;99.90;;;;;;5062684;28;20039;-52
2023/07/28 02:57:11;;;;;;;6.63;1.70;;;18.40;99.90;;;;;;5068746;28;20027;-50
2023/07/28 03:00:20;;;;;;;4.32;2.08;;;18.40;99.90;;;;;;5068743;28;20044;-52
2023/07/28 03:03:24;;;;;;;4.38;1.42;;;18.30;99.90;;;;;;5068218;28;20054;-51
2023/07/28 03:06:29;;;;;;;5.18;1.60;;;18.10;99.90;;;;;;5069759;28;20403;-50
2023/07/28 03:09:33;;;;;;;4.10;1.63;;;18.00;99.90;;;;;;5068723;28;20545;-52
2023/07/28 03:12:39;;;;;;;10.98;2.47;;;18.00;99.90;;;;;;5069277;28;20407;-52
2023/07/28 03:15:43;;;;;;;10.27;2.63;;;18.00;99.90;;;;;;5069802;28;20518;-52
2023/07/28 03:18:47;;;;;;;6.28;2.00;;;17.90;99.90;;;;;;5068852;28;20044;-50
2023/07/28 03:21:51;;;;;;;5.43;2.60;;;17.80;99.90;;;;;;5068588;28;20055;-51
2023/07/28 03:24:56;;;;;;;7.07;2.33;;;17.70;99.90;;;;;;5068289;28;20051;-52
2023/07/28 03:28:01;;;;;;;5.25;2.33;;;17.70;99.90;;;;;;5069723;28;20075;-50
2023/07/28 03:31:05;;;;;;;7.20;2.05;;;17.60;99.90;;;;;;5069413;28;20043;-51
2023/07/28 03:34:09;;;;;;;6.43;2.70;;;17.50;99.90;;;;;;5068346;28;20521;-50
2023/07/28 03:37:13;;;;;;;9.50;2.53;;;17.50;99.90;;;;;;5068653;28;20044;-50
2023/07/28 03:40:17;;;;;;;7.78;2.10;;;17.50;99.90;;;;;;5068585;28;20446;-52
2023/07/28 03:43:26;;;;;;;11.90;2.30;;;17.50;99.90;;;;;;5071188;28;20407;-52
2023/07/28 03:46:30;;;;;;;8.43;2.97;;;17.50;99.90;;;;;;5072456;28;20043;-53
2023/07/28 03:49:35;;;;;;;11.50;3.90;;;17.50;99.90;;;;;;5072942;28;20036;-50
2023/07/28 03:52:41;;;;;;;6.15;2.08;;;17.50;99.90;;;;;;5072584;28;20051;-50
2023/07/28 03:55:45;;;;;;;5.38;2.28;;;17.40;99.90;;;;;;5073007;28;20044;-50
2023/07/28 03:58:50;;;;;;;9.55;2.72;;;17.40;99.90;;;;;;5073214;28;20051;-53
2023/07/28 04:01:55;;;;;;;10.38;3.10;;;17.40;99.90;;;;;;5071985;28;20067;-50
2023/07/28 04:04:59;;;;;;;9.93;3.17;;;17.50;99.90;;;;;;5072618;28;20043;-50
2023/07/28 04:08:05;;;;;;;7.30;2.72;;;17.50;99.90;;;;;;5072789;28;20052;-50
2023/07/28 04:11:09;;;;;;;12.65;2.60;;;17.50;99.90;;;;;;5059865;28;20047;-52
2023/07/28 04:14:14;;;;;;;6.07;2.55;;;17.60;99.90;;;;;;5072330;28;20040;-50
2023/07/28 04:17:18;;;;;;;13.73;3.20;;;17.70;99.90;;;;;;5072644;28;20039;-52
2023/07/28 04:20:22;;;;;;;6.75;2.42;;;17.80;99.90;;;;;;5071821;28;20048;-50
2023/07/28 04:23:27;;;;;;;6.57;2.40;;;17.90;99.90;;;;;;5072527;28;20043;-50
2023/07/28 04:26:31;;;;;;;7.22;2.72;;;18.00;99.90;;;;;;5071177;28;20502;-50
2023/07/28 04:29:38;;;;;;;8.13;2.55;;;18.10;99.90;;;;;;5040187;28;20104;-50
2023/07/28 04:32:45;;;;;;;8.50;2.92;;;18.20;99.90;;;;;;5039481;28;20044;-53
2023/07/28 04:35:54;;;;;;;10.55;2.60;;;18.30;99.90;;;;;;5040139;28;20041;-51
2023/07/28 04:39:08;;;;;;;9.32;2.60;;;18.00;99.90;;;;;;5040282;28;20068;-50
2023/07/28 04:42:12;;;;;;;13.48;2.50;;;18.00;99.90;;;;;;5052270;28;20427;-50
2023/07/28 04:45:20;;;;;;;8.93;2.42;;;18.10;99.90;;;;;;5039484;28;20047;-54
2023/07/28 04:48:23;;;;;;;10.52;3.00;;;18.20;99.90;;;;;;5040085;28;20048;-51
2023/07/28 04:51:28;;;;;;;11.05;2.88;;;18.30;99.90;;;;;;5039340;28;20048;-50
2023/07/28 04:54:56;;;;;;;9.70;2.67;;;18.70;99.90;;;;;;5038064;28;20044;-52
2023/07/28 04:58:00;;;;;;;8.10;3.03;;;21.10;99.90;;;;;;5039461;28;20036;-53
2023/07/28 05:01:13;;;;;;;8.13;2.40;;;22.90;99.90;;;;;;5039267;28;20048;-51
2023/07/28 05:04:19;;;;;;;7.38;2.40;;;24.00;99.90;;;;;;5039623;28;20059;-50
2023/07/28 05:07:23;;;;;;;6.07;2.30;;;25.10;99.90;;;;;;5051712;28;20032;-50
2023/07/28 05:10:28;;;;;;;9.40;2.42;;;25.80;98.30;;;;;;5065123;22;20047;31
2023/07/28 05:13:32;;;;;;;9.95;2.33;;;26.30;98.10;;;;;;5009110;28;20050;-59
2023/07/28 05:16:36;;;;;;;6.85;2.40;;;26.70;97.20;;;;;;4999589;28;20133;-58
2023/07/28 05:19:41;;;;;;;6.68;2.10;;;27.40;96.20;;;;;;5015372;28;20045;-58
2023/07/28 05:22:48;;;;;;;9.23;2.40;;;27.60;95.90;;;;;;4987531;28;20061;-60
2023/07/28 05:25:58;;;;;;;8.38;2.45;;;27.90;95.50;;;;;;4991948;28;20324;-57
2023/07/28 05:29:01;;;;;;;5.85;2.58;;;27.80;95.50;;;;;;5002247;28;20069;-57
2023/07/28 05:32:06;;;;;;;7.47;2.13;;;27.90;95.00;;;;;;4988427;28;20045;-59
2023/07/28 05:35:37;;;;;;;6.43;2.33;;;27.30;95.30;;;;;;5001929;28;20049;-60
2023/07/28 05:38:42;;;;;;;4.53;2.15;;;27.80;95.10;;;;;;5001877;28;20053;-62
2023/07/28 05:41:46;;;;;;;8.95;2.92;;;27.70;95.40;;;;;;4997681;28;20120;-57
2023/07/28 05:44:52;;;;;;;5.97;2.50;;;27.00;95.50;;;;;;4990841;28;20422;-60
2023/07/28 05:47:57;;;;;;;11.07;3.10;;;25.50;96.60;;;;;;4979422;28;20274;-61
2023/07/28 05:51:04;;;;;;;9.57;2.90;;;25.40;97.50;;;;;;4991350;28;20057;-62
2023/07/28 05:54:08;;;;;;;6.63;2.22;;;24.10;99.50;;;;;;4979552;28;20501;-61
2023/07/28 05:57:15;;;;;;;7.07;3.03;;;26.10;98.30;;;;;;4991207;28;20040;-59
2023/07/28 06:00:21;;;;;;;7.80;3.10;;;28.40;96.30;;;;;;4990379;28;20041;-61
2023/07/28 06:03:29;;;;;;;10.70;2.90;;;29.60;94.30;;;;;;4979257;28;20049;-61
2023/07/28 06:06:41;;;;;;;7.38;2.72;;;28.50;94.00;;;;;;4989781;28;20414;-62
2023/07/28 06:09:47;;;;;;;7.35;2.63;;;29.70;93.60;;;;;;4991395;28;20057;-57
2023/07/28 06:12:51;;;;;;;6.85;2.30;;;29.40;92.20;;;;;;4978526;28;20057;-58
2023/07/28 06:15:56;;;;;;;4.75;2.15;;;28.90;92.10;;;;;;4990044;28;20404;-60
2023/07/28 06:19:00;;;;;;;6.63;2.67;;;27.90;93.10;;;;;;4992971;28;20040;-62
2023/07/28 06:22:05;;;;;;;5.30;2.42;;;26.30;93.50;;;;;;4977252;28;20057;-60
2023/07/28 06:25:13;;;;;;;7.80;3.08;;;25.80;95.20;;;;;;4984053;28;20057;-57
2023/07/28 06:28:17;;;;;;;7.82;3.00;;;25.20;96.20;;;;;;4975909;28;20417;-58
2023/07/28 06:31:21;;;;;;;7.35;2.40;;;25.00;96.70;;;;;;4990513;28;20523;-58
2023/07/28 06:34:25;;;;;;;7.00;2.47;;;25.40;96.70;;;;;;4990110;28;20049;-60
2023/07/28 06:37:29;;;;;;;7.15;2.33;;;26.40;95.50;;;;;;4977745;28;20037;-62
2023/07/28 06:40:34;;;;;;;8.43;2.33;;;27.00;95.00;;;;;;4990491;28;20054;-60
2023/07/28 06:43:38;;;;;;;9.10;2.67;;;25.90;95.90;;;;;;4990704;28;20118;-58
2023/07/28 06:46:45;;;;;;;6.07;2.35;;;26.50;95.30;;;;;;4990361;28;20516;-59
2023/07/28 06:49:50;;;;;;;10.25;2.47;;;26.90;94.30;;;;;;4987635;28;20755;-56
2023/07/28 06:52:55;;;;;;;5.90;2.30;;;26.80;94.50;;;;;;4990224;28;20050;-61
2023/07/28 06:56:02;;;;;;;9.57;2.80;;;26.20;95.30;;;;;;4976652;28;20053;-61
2023/07/28 06:59:08;;;;;;;7.50;2.58;;;24.90;95.60;;;;;;4990613;28;20041;-57
2023/07/28 07:02:13;;;;;;;7.22;2.58;;;23.80;98.20;;;;;;4990089;28;20049;-59
2023/07/28 07:05:17;;;;;;;6.63;2.50;;;24.50;98.30;;;;;;4987684;28;20053;-62
2023/07/28 07:08:22;;;;;;;5.22;2.50;;;24.60;97.90;;;;;;4986941;28;20232;-61
2023/07/28 07:11:27;;;;;;;6.10;2.15;;;24.60;97.60;;;;;;4974571;28;20410;-60
2023/07/28 07:14:35;;;;;;;7.20;2.25;;;24.90;97.50;;;;;;4971446;28;20340;-57
2023/07/28 07:17:39;;;;;;;6.18;2.35;;;25.30;97.20;;;;;;4972586;28;20050;-59
2023/07/28 07:20:43;;;;;;;5.78;2.10;;;25.70;97.30;;;;;;4977166;28;20552;-60
2023/07/28 07:23:47;;;;;;;9.77;2.83;;;25.30;97.80;;;;;;4993631;28;20102;-59
2023/07/28 07:27:03;;;;;;;15.30;2.95;;;24.70;98.80;;;;;;4993748;28;20049;-57
2023/07/28 07:30:08;;;;;;;9.73;2.80;;;23.90;99.90;;;;;;4993940;28;20045;-57
2023/07/28 07:33:11;;;;;;;9.07;4.05;;;23.70;99.90;;;;;;4993749;28;20053;-57
2023/07/28 07:36:19;;;;;;;7.50;3.00;;;23.10;99.90;;;;;;4994289;28;20054;-58
2023/07/28 07:39:24;;;;;;;16.35;3.20;;;23.10;99.90;;;;;;4993918;28;20106;-61
2023/07/28 07:42:40;;;;;;;10.10;3.03;;;22.90;99.90;;;;;;4993898;28;20122;-58
2023/07/28 07:45:46;;;;;;;7.40;2.80;;;22.70;99.90;;;;;;4993948;28;20045;-57
2023/07/28 07:48:52;;;;;;;9.18;3.08;;;22.20;99.90;;;;;;4993408;28;20065;-58
2023/07/28 07:51:57;;;;;;;8.15;3.22;;;21.70;99.90;;;;;;4993458;28;20065;-57
2023/07/28 07:55:02;;;;;;;5.65;2.45;;;21.50;99.90;;;;;;4993907;28;20053;-58
2023/07/28 07:58:08;;;;;;;5.78;2.58;;;21.80;99.90;;;;;;4993095;28;20046;-57
2023/07/28 08:01:12;;;;;;;11.20;3.15;;;22.20;99.90;;;;;;4993660;28;20041;-57
2023/07/28 08:04:16;;;;;;;11.38;2.80;;;22.50;99.90;;;;;;4981536;28;20393;-60
2023/07/28 08:07:22;;;;;;;7.68;2.63;;;22.70;99.90;;;;;;4992735;28;20131;-58
2023/07/28 08:10:26;;;;;;;9.48;2.83;;;23.10;99.90;;;;;;4992989;28;20037;-57
2023/07/28 08:13:30;;;;;;;6.65;2.70;;;23.70;99.90;;;;;;4992673;28;20049;-60
2023/07/28 08:16:35;;;;;;;10.23;3.20;;;24.40;99.90;;;;;;4993168;28;20046;-58
2023/07/28 08:19:39;;;;;;;8.40;2.80;;;25.30;99.90;;;;;;4993073;28;20041;-58
2023/07/28 08:22:43;;;;;;;9.25;3.05;;;26.20;99.90;;;;;;4992537;28;20524;-58
2023/07/28 08:25:48;;;;;;;6.55;2.63;;;26.60;99.90;;;;;;4992441;28;20041;-60
2023/07/28 08:28:53;;;;;;;8.77;3.40;;;26.50;99.90;;;;;;4992681;28;20062;-55
2023/07/28 08:31:57;;;;;;;9.35;2.90;;;26.30;99.90;;;;;;4992063;28;20053;-58
2023/07/28 08:35:03;;;;;;;12.60;3.05;;;26.40;99.90;;;;;;4991935;28;20033;-58
2023/07/28 08:38:08;;;;;;;12.57;3.13;;;24.40;99.90;;;;;;4992284;28;20050;-58
2023/07/28 08:41:15;;;;;;;9.27;3.03;;;23.60;99.90;;;;;;4991212;28;20049;-62
2023/07/28 08:44:19;;;;;;;15.60;3.22;;;23.40;99.90;;;;;;4991943;28;20053;-57
2023/07/28 08:47:24;;;;;;;11.63;3.35;;;23.80;99.90;;;;;;4992188;28;20076;-57
2023/07/28 08:50:29;;;;;;;8.63;2.53;;;24.30;99.90;;;;;;4991409;28;20428;-57
2023/07/28 08:53:34;;;;;;;11.02;2.63;;;26.00;99.90;;;;;;4992347;28;20053;-59
2023/07/28 08:56:37;;;;;;;10.23;3.08;;;26.60;99.90;;;;;;4991988;28;20041;-58
2023/07/28 08:59:47;;;;;;;7.28;2.55;;;26.50;99.90;;;;;;4992525;28;20041;-61
2023/07/28 09:02:51;;;;;;;11.75;2.65;;;26.90;99.90;;;;;;4991958;28;20057;-57
2023/07/28 09:06:01;;;;;;;14.07;2.90;;;27.30;99.90;;;;;;4989027;28;20049;-60
2023/07/28 09:09:08;;;;;;;8.40;2.65;;;30.10;99.30;;;;;;4990412;28;20049;-60
2023/07/28 09:12:13;;;;;;;9.57;3.25;;;31.90;95.30;;;;;;4982948;28;20041;-60
2023/07/28 09:15:17;;;;;;;13.82;2.72;;;30.20;96.30;;;;;;4990047;28;20524;-55
2023/07/28 09:18:27;;;;;;;9.88;2.72;;;31.90;95.80;;;;;;4982754;28;20512;-58
2023/07/28 09:21:32;;;;;;;7.38;2.15;;;32.10;94.60;;;;;;4992007;28;20038;-59
2023/07/28 09:24:36;;;;;;;6.10;2.50;;;32.10;94.00;;;;;;4985798;28;20405;-61
2023/07/28 09:27:41;;;;;;;9.10;2.88;;;34.40;92.60;;;;;;4986703;28;20033;-60
2023/07/28 09:30:49;;;;;;;6.43;2.78;;;36.50;91.00;;;;;;4988255;28;20045;-58
2023/07/28 09:33:53;;;;;;;7.05;2.50;;;34.10;88.80;;;;;;4990487;28;20042;-59
2023/07/28 09:36:58;;;;;;;7.05;2.05;;;31.40;91.70;;;;;;4987356;28;20070;-61
2023/07/28 09:40:04;;;;;;;8.98;2.17;;;31.00;92.00;;;;;;4987572;28;20157;-61
2023/07/28 09:43:08;;;;;;;5.43;2.50;;;31.60;92.20;;;;;;4988846;28;20054;-61
2023/07/28 09:46:15;;;;;;;8.90;2.22;;;33.10;91.10;;;;;;4990631;28;20061;-57
2023/07/28 09:49:34;;;;;;;7.45;2.50;;;31.50;91.40;;;;;;4991376;28;20061;-57
2023/07/28 09:52:42;;;;;;;4.70;1.90;;;31.60;91.90;;;;;;4989059;28;20057;-61
2023/07/28 09:55:49;;;;;;;5.10;2.08;;;33.80;90.40;;;;;;4979150;28;20516;-59
2023/07/28 09:58:53;;;;;;;7.18;2.30;;;35.30;88.60;;;;;;4979479;28;20037;-59
2023/07/28 10:01:58;;;;;;;6.00;2.05;;;34.90;87.50;;;;;;4983344;28;20057;-57
2023/07/28 10:05:07;;;;;;;6.85;2.05;;;33.00;90.70;;;;;;4989065;28;20512;-59
2023/07/28 10:08:13;;;;;;;5.15;1.98;;;36.20;85.70;;;;;;4989980;28;20053;-60
2023/07/28 10:11:19;;;;;;;4.90;1.65;;;40.60;79.70;;;;;;4982533;28;20069;-58
2023/07/28 10:14:37;;;;;;;6.43;1.90;;;41.00;76.10;;;;;;4980700;28;20042;-58
2023/07/28 10:17:45;;;;;;;9.35;2.47;;;36.40;80.20;;;;;;4990181;28;20061;-58
2023/07/28 10:20:49;;;;;;;4.95;2.20;;;35.10;79.40;;;;;;4986843;28;20049;-58
2023/07/28 10:23:56;;;;;;;8.63;2.22;;;38.00;77.70;;;;;;4982035;28;20053;-59
2023/07/28 10:27:00;;;;;;;11.10;2.38;;;38.20;78.20;;;;;;4990153;28;20409;-57
2023/07/28 10:30:11;;;;;;;6.85;2.60;;;38.10;76.80;;;;;;4988044;28;20061;-60
2023/07/28 10:33:35;;;;;;;7.28;2.13;;;37.90;76.10;;;;;;4981899;28;20504;-58
2023/07/28 10:36:43;;;;;;;5.70;2.10;;;38.50;75.90;;;;;;4991091;28;20041;-61
2023/07/28 10:39:47;;;;;;;9.90;3.47;;;38.00;77.30;;;;;;4989375;28;20049;-60
2023/07/28 10:42:52;;;;;;;7.10;1.98;;;38.90;75.70;;;;;;4986175;28;20527;-58
2023/07/28 10:45:56;;;;;;;4.90;2.05;;;40.40;72.70;;;;;;4986399;28;20114;-55
2023/07/28 10:49:05;;;;;;;8.20;2.25;;;39.70;73.30;;;;;;4989560;28;20061;-61
2023/07/28 10:52:09;;;;;;;5.97;2.03;;;38.40;73.60;;;;;;4983983;28;20045;-60
2023/07/28 10:55:20;;;;;;;6.55;2.10;;;38.90;74.10;;;;;;4988177;28;20052;-61
2023/07/28 10:58:26;;;;;;;6.93;2.38;;;36.50;75.80;;;;;;4988120;28;20046;-58
2023/07/28 11:01:37;;;;;;;8.10;2.55;;;36.70;75.70;;;;;;4988822;28;20045;-61
2023/07/28 11:04:49;;;;;;;6.05;2.10;;;38.60;74.50;;;;;;4986761;28;20541;-58
2023/07/28 11:07:59;;;;;;;7.22;2.38;;;38.30;75.60;;;;;;4987529;28;20552;-60
2023/07/28 11:11:05;;;;;;;6.40;2.00;;;35.30;75.30;;;;;;4996597;22;20512;31
2023/07/28 11:14:10;;;;;;;6.40;2.38;;;38.40;74.90;;;;;;5025167;28;20056;-55
2023/07/28 11:17:15;;;;;;;6.57;2.10;;;41.10;73.30;;;;;;5023866;28;20092;-50
2023/07/28 11:20:28;;;;;;;8.40;2.00;;;36.30;75.20;;;;;;5026698;28;20032;-52
2023/07/28 11:23:33;;;;;;;7.07;2.50;;;34.80;79.10;;;;;;4998685;28;20038;-52
2023/07/28 11:26:38;;;;;;;7.55;1.90;;;38.60;75.50;;;;;;5005468;28;20072;-55
2023/07/28 11:29:43;;;;;;;9.38;2.30;;;40.10;73.20;;;;;;5004910;28;20608;-57
2023/07/28 11:32:49;;;;;;;9.95;2.95;;;39.80;72.60;;;;;;5004265;28;20041;-52
2023/07/28 11:35:54;;;;;;;4.13;2.03;;;37.60;73.90;;;;;;4997525;28;20096;-53
2023/07/28 11:38:59;;;;;;;6.38;2.72;;;35.10;77.10;;;;;;5003148;28;20516;-54
2023/07/28 11:42:04;;;;;;;7.18;2.30;;;32.90;79.80;;;;;;5002774;28;20121;-54
2023/07/28 11:45:10;;;;;;;9.88;2.60;;;33.50;80.20;;;;;;5005232;28;20696;-56
2023/07/28 11:48:15;;;;;;;5.63;2.00;;;31.90;82.70;;;;;;5006319;28;20057;-51
2023/07/28 11:51:20;;;;;;;7.65;2.30;;;34.70;78.90;;;;;;5006664;28;20095;-49
2023/07/28 11:54:25;;;;;;;6.53;2.70;;;37.50;77.20;;;;;;5005847;28;20049;-54
2023/07/28 11:57:32;;;;;;;9.75;2.03;;;40.10;75.70;;;;;;5000987;28;20527;-54
2023/07/28 12:00:40;;;;;;;7.10;2.25;;;41.50;73.40;;;;;;5007230;28;20512;-52
2023/07/28 12:03:44;;;;;;;4.65;1.95;;;41.00;74.10;;;;;;5009612;28;20045;-49
2023/07/28 12:07:30;;;;;;;7.72;2.50;;;42.30;71.60;;;;;;5011467;28;20048;-52
2023/07/28 12:10:37;;;;;;;5.57;1.85;;;43.50;71.60;;;;;;4995200;28;20044;-52
2023/07/28 12:13:50;;;;;;;10.77;2.25;;;42.20;69.20;;;;;;5011592;28;20053;-49
2023/07/28 12:16:55;;;;;;;7.25;1.88;;;41.80;70.30;;;;;;4997205;28;20053;-52
2023/07/28 12:20:13;;;;;;;7.00;1.58;;;42.40;70.50;;;;;;5008857;28;20276;-53
2023/07/28 12:23:19;;;;;;;7.25;1.95;;;42.20;68.80;;;;;;4988290;28;20515;-57
2023/07/28 12:26:24;;;;;;;5.50;2.25;;;41.40;69.20;;;;;;4997902;28;20048;-54
2023/07/28 12:29:28;;;;;;;10.43;2.10;;;41.50;68.90;;;;;;5010725;28;20057;-51
2023/07/28 12:32:33;;;;;;;5.75;2.28;;;41.50;70.00;;;;;;5006138;28;20065;-53
2023/07/28 12:35:37;;;;;;;4.72;1.88;;;41.00;71.40;;;;;;5004024;28;20428;-53
2023/07/28 12:38:41;;;;;;;6.95;1.90;;;41.00;70.50;;;;;;5007095;28;20045;-52
2023/07/28 12:41:45;;;;;;;6.57;2.10;;;41.40;71.60;;;;;;5004757;28;20049;-51
2023/07/28 12:44:50;;;;;;;10.15;2.35;;;41.10;69.40;;;;;;5007634;28;20044;-55
2023/07/28 12:47:54;;;;;;;6.40;2.28;;;40.20;70.60;;;;;;5010240;28;20601;-51
2023/07/28 12:50:58;;;;;;;6.78;2.15;;;39.10;72.20;;;;;;5005678;28;20040;-53
2023/07/28 12:54:02;;;;;;;6.93;2.30;;;38.50;72.00;;;;;;5008556;28;20048;-51
2023/07/28 12:57:08;;;;;;;6.45;2.42;;;38.10;73.30;;;;;;5011666;28;20045;-53
2023/07/28 13:00:12;;;;;;;8.20;2.20;;;36.30;72.90;;;;;;5010439;28;20053;-51
2023/07/28 13:03:17;;;;;;;7.18;2.50;;;36.80;73.50;;;;;;5007246;28;20045;-54
2023/07/28 13:06:21;;;;;;;4.82;2.17;;;36.10;72.90;;;;;;5009548;28;20049;-56
2023/07/28 13:09:26;;;;;;;9.38;2.38;;;37.30;72.10;;;;;;5009330;28;20053;-53
2023/07/28 13:12:30;;;;;;;5.90;2.60;;;38.70;73.60;;;;;;5004616;28;20048;-51
2023/07/28 13:15:35;;;;;;;5.13;2.10;;;38.00;71.50;;;;;;5003906;28;20041;-54
2023/07/28 13:18:39;;;;;;;5.65;2.13;;;36.10;74.30;;;;;;5009794;28;20404;-53
2023/07/28 13:21:45;;;;;;;5.70;2.33;;;36.30;73.20;;;;;;4999808;28;20512;-54
2023/07/28 13:24:50;;;;;;;9.57;2.63;;;35.00;77.70;;;;;;5009190;28;20049;-50
2023/07/28 13:27:54;;;;;;;11.32;2.40;;;34.00;78.40;;;;;;5007902;28;20033;-51
2023/07/28 13:30:58;;;;;;;8.25;2.83;;;35.30;77.60;;;;;;5009033;28;20045;-58
2023/07/28 13:34:02;;;;;;;7.65;2.47;;;35.70;76.00;;;;;;5009217;28;20049;-51
2023/07/28 13:37:08;;;;;;;5.57;2.45;;;36.40;76.30;;;;;;5008990;28;20800;-52
2023/07/28 13:40:14;;;;;;;5.43;2.88;;;37.30;75.40;;;;;;5009915;28;20052;-50
2023/07/28 13:43:19;;;;;;;10.73;2.47;;;37.80;75.00;;;;;;5007491;28;20045;-51
2023/07/28 13:46:25;;;;;;;7.85;2.63;;;37.90;75.10;;;;;;5008229;28;20061;-52
2023/07/28 13:49:31;;;;;;;7.03;2.65;;;37.50;75.90;;;;;;5009059;28;20511;-54
2023/07/28 13:52:34;;;;;;;7.15;2.53;;;37.50;75.90;;;;;;5006811;28;20052;-50
2023/07/28 13:55:38;;;;;;;9.43;2.83;;;37.80;74.70;;;;;;5002200;28;20053;-52
2023/07/28 13:58:42;;;;;;;7.60;2.88;;;37.70;75.90;;;;;;5002692;28;20041;-52
2023/07/28 14:01:48;;;;;;;5.80;2.25;;;37.10;76.70;;;;;;5007484;28;20045;-50
2023/07/28 14:04:53;;;;;;;10.02;2.92;;;36.80;77.30;;;;;;5003705;28;20041;-52
2023/07/28 14:07:56;;;;;;;9.90;2.63;;;36.50;76.80;;;;;;5003585;28;20488;-52
2023/07/28 14:11:00;;;;;;;9.15;2.33;;;35.90;79.10;;;;;;5005259;28;20049;-52
2023/07/28 14:14:04;;;;;;;14.77;3.75;;;35.90;79.00;;;;;;5006784;28;20052;-52
2023/07/28 14:17:09;;;;;;;8.73;2.92;;;36.00;78.40;;;;;;5007793;28;20041;-54
2023/07/28 14:20:13;;;;;;;12.93;2.85;;;36.00;79.10;;;;;;5003342;28;20044;-56
2023/07/28 14:23:24;;;;;;;5.22;2.45;;;35.50;79.40;;;;;;5005914;28;20056;-56
2023/07/28 14:26:28;;;;;;;5.75;2.38;;;35.30;80.00;;;;;;5005260;28;20057;-53
2023/07/28 14:29:34;;;;;;;8.35;2.85;;;35.20;80.50;;;;;;5000791;28;20418;-51
2023/07/28 14:32:38;;;;;;;5.93;3.30;;;35.10;81.50;;;;;;5004573;28;20057;-50
2023/07/28 14:35:46;;;;;;;17.15;3.08;;;33.40;82.10;;;;;;5006556;28;20037;-50
2023/07/28 14:38:51;;;;;;;8.60;3.65;;;33.30;83.00;;;;;;5004001;28;20049;-54
2023/07/28 14:41:55;;;;;;;10.10;2.95;;;33.40;84.10;;;;;;5008654;28;20045;-54
2023/07/28 14:45:00;;;;;;;6.63;2.35;;;33.60;82.60;;;;;;5006517;28;20053;-51
2023/07/28 14:48:04;;;;;;;16.80;3.30;;;34.00;82.70;;;;;;4990858;28;20437;-51
2023/07/28 14:51:10;;;;;;;7.25;2.78;;;34.20;82.80;;;;;;5003663;28;20053;-55
2023/07/28 14:54:14;;;;;;;12.85;2.92;;;34.10;82.30;;;;;;5005583;28;20060;-53
2023/07/28 14:57:19;;;;;;;11.13;3.05;;;33.70;82.70;;;;;;5007254;28;20401;-53
2023/07/28 15:00:23;;;;;;;11.55;3.00;;;33.70;83.60;;;;;;5005029;28;20037;-55
2023/07/28 15:03:28;;;;;;;10.50;2.92;;;33.80;84.40;;;;;;5003343;28;20045;-53
2023/07/28 15:06:33;;;;;;;22.17;4.40;;;33.90;84.10;;;;;;5005240;28;20048;-51
2023/07/28 15:09:37;;;;;;;56.72;4.20;;;34.00;83.70;;;;;;5003483;28;20053;-52
2023/07/28 15:12:41;;;;;;;6.20;3.08;;;34.10;83.90;;;;;;5005053;28;20409;-52
2023/07/28 15:15:46;;;;;;;10.07;3.05;;;33.50;84.10;;;;;;5004889;28;20579;-56
2023/07/28 15:18:50;;;;;;;12.15;2.88;;;32.80;85.60;;;;;;5004964;28;20890;-56
2023/07/28 15:21:54;;;;;;;11.48;3.05;;;32.50;87.30;;;;;;5006984;28;20048;-53
2023/07/28 15:24:58;;;;;;;7.00;3.28;;;32.50;87.30;;;;;;5008542;28;20049;-54
2023/07/28 15:28:02;;;;;;;9.55;2.92;;;32.20;87.50;;;;;;5010404;28;20053;-56
2023/07/28 15:31:06;;;;;;;16.08;3.30;;;32.30;88.70;;;;;;5010156;28;20518;-53
2023/07/28 15:34:10;;;;;;;14.75;4.15;;;32.60;87.40;;;;;;4996373;28;20044;-53
2023/07/28 15:37:14;;;;;;;8.88;3.25;;;32.70;87.70;;;;;;5006268;28;20037;-55
2023/07/28 15:40:18;;;;;;;8.40;2.92;;;32.50;87.80;;;;;;5009438;28;20037;-53
2023/07/28 15:43:24;;;;;;;7.35;3.20;;;32.40;88.20;;;;;;5010118;28;20044;-50
2023/07/28 15:46:30;;;;;;;14.38;2.88;;;32.20;88.60;;;;;;5011694;28;20049;-52
2023/07/28 15:49:34;;;;;;;10.50;2.80;;;31.90;89.10;;;;;;5006309;28;20049;-52
2023/07/28 15:52:37;;;;;;;15.90;4.15;;;31.70;89.30;;;;;;4999327;28;20400;-53
2023/07/28 15:55:42;;;;;;;12.30;3.78;;;31.70;89.50;;;;;;5006438;28;20508;-50
2023/07/28 15:58:46;;;;;;;15.80;3.33;;;31.60;89.40;;;;;;5014865;28;20041;-53
2023/07/28 16:01:50;;;;;;;11.98;2.92;;;31.70;90.40;;;;;;4999972;28;20044;-51
2023/07/28 16:04:54;;;;;;;12.43;3.63;;;31.60;90.00;;;;;;5014722;28;20052;-50